createdAt,value
2023-12-30T00:02:46.681Z,5.17
2023-12-30T00:07:48.612Z,5.19
2023-12-30T00:12:50.659Z,5.14
2023-12-30T00:17:52.792Z,5.23
2023-12-30T00:22:54.874Z,5.27
2023-12-30T00:27:57.304Z,5.27
2023-12-30T00:32:59.550Z,5.11
2023-12-30T00:38:01.754Z,5.17
2023-12-30T00:43:04.163Z,5.15
2023-12-30T00:48:06.701Z,5.16
2023-12-30T00:53:08.710Z,4.92
2023-12-30T00:58:10.716Z,4.69
2023-12-30T01:03:12.778Z,4.64
2023-12-30T01:08:14.911Z,4.60
2023-12-30T01:13:16.948Z,4.60
2023-12-30T01:18:19.128Z,4.54
2023-12-30T01:23:21.233Z,4.37
2023-12-30T01:28:23.269Z,4.58
2023-12-30T01:33:25.369Z,4.56
2023-12-30T01:38:27.628Z,4.51
2023-12-30T01:43:33.126Z,4.35
2023-12-30T01:48:37.168Z,4.47
2023-12-30T01:53:42.601Z,4.50
2023-12-30T01:58:44.801Z,4.38
2023-12-30T02:03:48.315Z,4.28
2023-12-30T02:08:50.815Z,4.36
2023-12-30T02:13:52.900Z,4.42
2023-12-30T02:18:54.995Z,4.37
2023-12-30T02:23:57.000Z,4.35
2023-12-30T02:28:58.909Z,4.31
2023-12-30T02:34:01.062Z,4.18
2023-12-30T02:39:03.118Z,4.33
2023-12-30T02:44:05.599Z,4.30
2023-12-30T02:49:07.739Z,4.38
2023-12-30T02:54:09.833Z,4.30
2023-12-30T02:59:12.042Z,4.49
2023-12-30T03:04:14.125Z,4.61
2023-12-30T03:09:16.326Z,4.61
2023-12-30T03:14:18.340Z,4.49
2023-12-30T03:19:20.411Z,4.48
2023-12-30T03:24:22.716Z,4.67
2023-12-30T03:29:25.141Z,4.97
2023-12-30T03:34:27.438Z,4.98
2023-12-30T03:39:29.778Z,5.30
2023-12-30T03:44:32.898Z,5.30
2023-12-30T03:49:35.444Z,5.24
2023-12-30T03:54:37.443Z,5.27
2023-12-30T03:59:39.498Z,5.24
2023-12-30T04:04:44.468Z,5.20
2023-12-30T04:09:46.821Z,5.07
2023-12-30T04:14:49.259Z,5.21
2023-12-30T04:19:51.410Z,5.32
2023-12-30T04:24:54.666Z,5.17
2023-12-30T04:29:57.819Z,4.94
2023-12-30T04:35:00.152Z,5.13
2023-12-30T04:40:02.234Z,5.18
2023-12-30T04:45:04.949Z,5.25
2023-12-30T04:50:07.529Z,5.20
2023-12-30T04:55:10.299Z,5.02
2023-12-30T05:00:12.990Z,5.16
2023-12-30T05:05:15.042Z,5.25
2023-12-30T05:10:17.241Z,5.14
2023-12-30T05:15:19.307Z,5.15
2023-12-30T05:20:21.385Z,5.25
2023-12-30T05:25:23.465Z,5.45
2023-12-30T05:30:25.553Z,5.46
2023-12-30T05:35:27.542Z,5.33
2023-12-30T05:40:29.562Z,5.31
2023-12-30T05:45:40.866Z,5.16
2023-12-30T05:50:42.880Z,5.23
2023-12-30T05:55:44.867Z,5.22
2023-12-30T06:00:46.810Z,5.26
2023-12-30T06:05:48.933Z,5.02
2023-12-30T06:10:55.235Z,5.15
2023-12-30T06:15:58.382Z,4.98
2023-12-30T06:21:06.255Z,5.11
2023-12-30T06:26:08.309Z,5.01
2023-12-30T06:31:10.566Z,4.98
2023-12-30T06:36:22.435Z,4.82
2023-12-30T06:41:24.474Z,4.90
2023-12-30T06:46:26.454Z,4.95
2023-12-30T06:51:29.126Z,4.96
2023-12-30T06:56:31.232Z,4.96
2023-12-30T07:01:33.550Z,5.06
2023-12-30T07:06:35.545Z,4.82
2023-12-30T07:11:37.479Z,4.86
2023-12-30T07:16:39.482Z,5.02
2023-12-30T07:21:41.646Z,4.98
2023-12-30T07:26:46.219Z,5.09
2023-12-30T07:31:49.734Z,5.08
2023-12-30T07:36:53.059Z,5.06
2023-12-30T07:41:55.456Z,4.95
2023-12-30T07:47:15.762Z,4.74
2023-12-30T07:52:18.037Z,4.70
2023-12-30T07:57:20.876Z,4.72
2023-12-30T08:02:23.154Z,4.81
2023-12-30T08:07:26.490Z,4.86
2023-12-30T08:12:28.462Z,4.97
2023-12-30T08:17:30.574Z,4.90
2023-12-30T08:22:32.856Z,4.83
2023-12-30T08:27:34.822Z,4.89
2023-12-30T08:32:36.822Z,4.94
2023-12-30T08:37:39.092Z,4.90
2023-12-30T08:42:45.543Z,4.92
2023-12-30T08:47:48.259Z,5.01
2023-12-30T08:52:50.610Z,5.06
2023-12-30T08:57:52.614Z,5.05
2023-12-30T09:02:57.042Z,5.17
2023-12-30T09:07:59.256Z,5.19
2023-12-30T09:13:01.642Z,5.28
2023-12-30T09:18:04.407Z,5.33
2023-12-30T09:23:06.484Z,5.44
2023-12-30T09:28:08.523Z,5.49
2023-12-30T09:33:12.342Z,5.55
2023-12-30T09:38:14.893Z,5.69
2023-12-30T09:43:24.434Z,5.56
2023-12-30T09:48:28.379Z,5.49
2023-12-30T09:53:31.840Z,5.48
2023-12-30T09:58:34.571Z,5.30
2023-12-30T10:03:37.322Z,5.46
2023-12-30T10:08:39.639Z,5.56
2023-12-30T10:13:41.999Z,5.49
2023-12-30T10:18:44.592Z,5.50
2023-12-30T10:23:50.197Z,5.47
2023-12-30T10:28:52.936Z,5.63
2023-12-30T10:33:55.180Z,6.05
2023-12-30T10:39:00.389Z,6.82
2023-12-30T10:44:02.319Z,6.56
2023-12-30T10:49:05.559Z,6.19
2023-12-30T10:54:09.240Z,6.32
2023-12-30T10:59:13.556Z,6.37
2023-12-30T11:04:16.439Z,7.51
2023-12-30T11:09:20.830Z,7.40
2023-12-30T11:14:23.742Z,8.66
2023-12-30T11:19:31.373Z,8.51
2023-12-30T11:24:34.992Z,7.79
2023-12-30T11:29:37.304Z,7.47
2023-12-30T11:34:39.292Z,7.42
2023-12-30T11:39:42.685Z,6.98
2023-12-30T11:44:45.077Z,6.95
2023-12-30T11:49:47.109Z,8.02
2023-12-30T11:54:51.930Z,7.85
2023-12-30T11:59:53.938Z,8.53
2023-12-30T18:18:38.376Z,6.43
2023-12-30T18:23:41.944Z,6.50
2023-12-30T18:28:47.593Z,6.53
2023-12-30T18:33:53.307Z,6.58
2023-12-30T18:38:55.628Z,6.68
2023-12-30T18:43:57.608Z,6.65
2023-12-30T18:49:00.167Z,6.73
2023-12-30T18:54:02.257Z,6.77
2023-12-30T18:59:04.757Z,6.75
2023-12-30T19:04:07.152Z,6.69
2023-12-30T19:09:10.305Z,6.75
2023-12-30T19:14:12.379Z,6.80
2023-12-30T19:19:14.377Z,6.76
2023-12-30T19:24:16.446Z,6.68
2023-12-30T19:29:21.373Z,6.83
2023-12-30T19:34:25.458Z,6.91
2023-12-30T19:39:27.941Z,6.85
2023-12-30T19:44:30.026Z,6.85
2023-12-30T19:49:32.108Z,6.80
2023-12-30T19:54:34.173Z,6.90
2023-12-30T19:59:40.992Z,6.74
2023-12-30T20:04:43.251Z,6.94
2023-12-30T20:09:45.753Z,6.95
2023-12-30T20:14:47.681Z,6.91
2023-12-30T20:19:50.098Z,6.81
2023-12-30T20:24:55.089Z,6.78
2023-12-30T20:29:57.298Z,6.69
2023-12-30T20:34:59.270Z,6.71
2023-12-30T20:40:01.346Z,6.63
2023-12-30T20:45:03.760Z,6.53
2023-12-30T20:50:06.320Z,6.58
2023-12-30T20:55:08.544Z,6.74
2023-12-30T21:00:11.971Z,6.65
2023-12-30T21:05:13.951Z,6.73
2023-12-30T21:10:16.089Z,6.59
2023-12-30T21:15:18.089Z,6.55
2023-12-30T21:20:20.038Z,6.52
2023-12-30T21:25:26.845Z,6.40
2023-12-30T21:30:29.716Z,6.44
2023-12-30T21:35:31.831Z,6.47
2023-12-30T21:40:33.921Z,6.31
2023-12-30T21:45:36.033Z,6.45
2023-12-30T21:50:38.073Z,6.41
2023-12-30T21:55:41.733Z,6.41
2023-12-30T22:00:43.816Z,6.31
2023-12-30T22:05:46.401Z,6.38
2023-12-30T22:10:48.540Z,6.28
2023-12-30T22:15:50.633Z,5.38
2023-12-30T22:20:56.016Z,5.56
2023-12-30T22:25:58.177Z,6.06
2023-12-30T22:31:00.359Z,6.22
2023-12-30T22:36:06.206Z,6.03
2023-12-30T22:41:11.126Z,5.53
2023-12-30T22:46:15.938Z,5.40
2023-12-30T22:51:19.639Z,6.32
2023-12-30T22:56:22.082Z,6.15
2023-12-30T23:01:24.537Z,5.71
2023-12-30T23:06:30.859Z,6.39
2023-12-30T23:11:33.426Z,6.44
2023-12-30T23:16:38.531Z,5.89
2023-12-30T23:21:40.847Z,5.69
2023-12-30T23:26:43.088Z,5.83
2023-12-30T23:31:45.146Z,5.83
2023-12-30T23:36:47.227Z,6.16
2023-12-30T23:41:49.265Z,6.15
2023-12-30T23:46:51.275Z,5.87
2023-12-30T23:51:56.739Z,5.97
2023-12-30T23:56:58.746Z,6.07
